Cadiz, California
Current Conditions -  °F | °C
As of 11:56 PM on Thursday 18 Dec 2014 (Local Time) from KNXP Reporting Station
Clear Clear  
Wind Chill: 36°   Ceiling: Unl
Heat Index: 41°   Visibility: 10mi
Dew Point: 34°   Wind: 7mph
Humidity: 76%   Direction: 290°WNW
Pressure: 30.3"   Gusts: NA
Location:  34.6377°N, 115.833°W
Report Text: KNXP 190756Z AUTO 29006KT 10SM CLR 05/01 A3030 RMK AO2 SLP245 T00500011 401390033 $
Loading
Personal Weather Stations






























Interactive Weather Map New forecast layout! Learn more

10-Day Weather Forecast

Advertisements
Track Severe Weather on mobile